createdAt,value
2024-01-11T00:00:50.104Z,25.65
2024-01-11T00:01:50.180Z,25.70
2024-01-11T00:02:50.134Z,25.64
2024-01-11T00:03:50.213Z,25.65
2024-01-11T00:04:50.272Z,25.68
2024-01-11T00:05:50.371Z,25.68
2024-01-11T00:06:50.307Z,25.68
2024-01-11T00:07:50.352Z,25.65
2024-01-11T00:08:51.348Z,25.64
2024-01-11T00:09:50.429Z,25.70
2024-01-11T00:10:50.465Z,25.66
2024-01-11T00:11:50.579Z,25.67
2024-01-11T00:12:50.544Z,25.61
2024-01-11T00:13:50.595Z,25.61
2024-01-11T00:14:50.610Z,25.55
2024-01-11T00:15:50.754Z,25.60
2024-01-11T00:16:50.729Z,25.55
2024-01-11T00:17:50.960Z,25.58
2024-01-11T00:18:51.443Z,25.62
2024-01-11T00:19:50.869Z,25.61
2024-01-11T00:20:51.043Z,25.54
2024-01-11T00:21:50.881Z,25.52
2024-01-11T00:22:51.090Z,25.55
2024-01-11T00:23:50.971Z,25.54
2024-01-11T00:24:51.051Z,25.54
2024-01-11T00:25:51.114Z,25.54
2024-01-11T00:26:51.096Z,25.52
2024-01-11T00:27:51.176Z,25.49
2024-01-11T00:28:51.341Z,25.54
2024-01-11T00:29:51.233Z,25.54
2024-01-11T00:30:51.344Z,25.48
2024-01-11T00:31:51.433Z,25.48
2024-01-11T00:32:51.441Z,25.51
2024-01-11T00:33:51.474Z,25.51
2024-01-11T00:34:51.552Z,25.55
2024-01-11T00:35:51.465Z,25.52
2024-01-11T00:36:51.550Z,25.48
2024-01-11T00:37:51.610Z,25.54
2024-01-11T00:38:51.604Z,25.51
2024-01-11T00:39:51.658Z,25.49
2024-01-11T00:40:51.719Z,25.54
2024-01-11T00:41:51.756Z,25.48
2024-01-11T00:42:51.821Z,25.47
2024-01-11T00:43:51.875Z,25.51
2024-01-11T00:44:51.894Z,25.52
2024-01-11T00:45:52.353Z,25.48
2024-01-11T00:46:51.971Z,25.47
2024-01-11T00:47:52.166Z,25.42
2024-01-11T00:48:56.338Z,25.45
2024-01-11T00:49:52.080Z,25.41
2024-01-11T00:50:52.064Z,25.43
2024-01-11T00:51:52.059Z,25.43
2024-01-11T00:52:52.065Z,25.42
2024-01-11T00:53:52.036Z,25.45
2024-01-11T00:54:52.072Z,25.43
2024-01-11T00:55:52.123Z,25.45
2024-01-11T00:56:52.097Z,25.45
2024-01-11T00:57:52.035Z,25.43
2024-01-11T00:58:52.081Z,25.43
2024-01-11T00:59:52.072Z,25.45
2024-01-11T01:00:52.399Z,25.39
2024-01-11T01:01:52.148Z,25.39
2024-01-11T01:02:52.060Z,25.43
2024-01-11T01:03:52.084Z,25.39
2024-01-11T01:04:52.109Z,25.42
2024-01-11T01:05:52.148Z,25.36
2024-01-11T01:06:52.126Z,25.39
2024-01-11T01:07:52.184Z,25.46
2024-01-11T01:08:52.268Z,25.41
2024-01-11T01:09:52.226Z,25.38
2024-01-11T01:10:52.307Z,25.39
2024-01-11T01:11:52.366Z,25.39
2024-01-11T01:12:52.411Z,25.36
2024-01-11T01:13:52.494Z,25.38
2024-01-11T01:14:52.485Z,25.35
2024-01-11T01:15:52.870Z,25.35
2024-01-11T01:16:52.663Z,25.39
2024-01-11T01:17:52.724Z,25.33
2024-01-11T01:18:52.765Z,25.33
2024-01-11T01:19:52.726Z,25.28
2024-01-11T01:20:52.872Z,25.31
2024-01-11T01:21:52.842Z,25.33
2024-01-11T01:22:52.907Z,25.35
2024-01-11T01:23:52.924Z,25.36
2024-01-11T01:24:53.032Z,25.32
2024-01-11T01:25:53.080Z,25.32
2024-01-11T01:26:53.069Z,25.31
2024-01-11T01:27:53.132Z,25.31
2024-01-11T01:28:53.241Z,25.32
2024-01-11T01:29:53.865Z,25.31
2024-01-11T01:30:53.494Z,25.29
2024-01-11T01:31:53.378Z,25.31
2024-01-11T01:32:53.547Z,25.28
2024-01-11T01:33:53.549Z,25.26
2024-01-11T01:34:53.580Z,25.26
2024-01-11T01:35:53.542Z,25.22
2024-01-11T01:36:53.602Z,25.22
2024-01-11T01:37:53.691Z,25.28
2024-01-11T01:38:53.715Z,25.31
2024-01-11T01:39:53.741Z,25.29
2024-01-11T01:40:53.784Z,25.29
2024-01-11T01:41:53.845Z,25.23
2024-01-11T01:42:53.882Z,25.28
2024-01-11T01:43:54.058Z,25.25
2024-01-11T01:44:54.012Z,25.18
2024-01-11T01:45:54.071Z,25.22
2024-01-11T01:46:54.193Z,25.26
2024-01-11T01:47:54.261Z,25.21
2024-01-11T01:48:54.295Z,25.26
2024-01-11T01:49:54.317Z,25.20
2024-01-11T01:50:54.371Z,25.19
2024-01-11T01:51:54.428Z,25.20
2024-01-11T01:52:54.563Z,25.18
2024-01-11T01:53:54.500Z,25.20
2024-01-11T01:54:54.553Z,25.21
2024-01-11T01:55:54.918Z,25.18
2024-01-11T01:56:54.673Z,25.19
2024-01-11T01:57:54.739Z,25.11
2024-01-11T01:58:54.917Z,25.18
2024-01-11T01:59:54.791Z,25.16
2024-01-11T02:00:54.892Z,25.12
2024-01-11T02:01:55.032Z,25.11
2024-01-11T02:02:56.028Z,25.15
2024-01-11T02:03:55.093Z,25.18
2024-01-11T02:04:55.128Z,25.13
2024-01-11T02:05:55.181Z,25.16
2024-01-11T02:06:55.145Z,25.16
2024-01-11T02:07:55.304Z,25.12
2024-01-11T02:08:55.295Z,25.13
2024-01-11T02:09:55.340Z,25.12
2024-01-11T02:10:55.401Z,25.12
2024-01-11T02:11:55.456Z,25.11
2024-01-11T02:12:55.497Z,25.10
2024-01-11T02:13:55.572Z,25.06
2024-01-11T02:14:55.623Z,25.11
2024-01-11T02:15:55.929Z,25.08
2024-01-11T02:16:55.721Z,25.09
2024-01-11T02:17:55.789Z,25.15
2024-01-11T02:18:55.878Z,25.11
2024-01-11T02:19:55.880Z,25.15
2024-01-11T02:20:55.970Z,25.10
2024-01-11T02:21:56.121Z,25.11
2024-01-11T02:22:56.059Z,25.04
2024-01-11T02:23:56.091Z,25.12
2024-01-11T02:24:56.155Z,25.15
2024-01-11T02:25:56.425Z,25.12
2024-01-11T02:26:56.254Z,25.09
2024-01-11T02:27:56.327Z,25.09
2024-01-11T02:28:56.398Z,25.10
2024-01-11T02:29:56.429Z,25.07
2024-01-11T02:30:56.516Z,25.06
2024-01-11T02:31:56.609Z,25.15
2024-01-11T02:32:56.891Z,25.09
2024-01-11T02:33:56.813Z,25.05
2024-01-11T02:34:56.737Z,25.00
2024-01-11T02:35:56.945Z,25.00
2024-01-11T02:36:56.848Z,25.05
2024-01-11T02:37:56.977Z,25.02
2024-01-11T02:38:56.932Z,25.00
2024-01-11T02:39:57.006Z,25.05
2024-01-11T02:40:57.099Z,25.03
2024-01-11T02:41:57.091Z,25.10
2024-01-11T02:42:57.159Z,25.09
2024-01-11T02:43:57.284Z,25.05
2024-01-11T02:44:57.309Z,25.00
2024-01-11T02:45:57.364Z,25.01
2024-01-11T02:46:57.437Z,25.02
2024-01-11T02:47:57.592Z,24.99
2024-01-11T02:48:57.558Z,25.01
2024-01-11T02:49:57.578Z,25.01
2024-01-11T02:50:57.610Z,25.00
2024-01-11T02:51:57.660Z,25.07
2024-01-11T02:52:57.759Z,25.03
2024-01-11T02:53:57.836Z,24.95
2024-01-11T02:54:57.851Z,25.00
2024-01-11T02:55:59.317Z,24.97
2024-01-11T02:56:57.982Z,25.00
2024-01-11T02:57:58.096Z,25.00
2024-01-11T02:58:58.148Z,24.95
2024-01-11T02:59:58.192Z,24.96
2024-01-11T03:00:58.357Z,24.97
2024-01-11T03:01:58.338Z,24.97
2024-01-11T03:02:58.407Z,25.00
2024-01-11T03:03:58.505Z,25.00
2024-01-11T03:04:58.524Z,24.98
2024-01-11T03:05:58.712Z,24.93
2024-01-11T03:06:58.655Z,24.99
2024-01-11T03:07:58.718Z,24.97
2024-01-11T03:08:58.718Z,24.89
2024-01-11T03:09:58.850Z,24.96
2024-01-11T03:10:58.911Z,24.97
2024-01-11T03:11:58.938Z,24.93
2024-01-11T03:12:59.010Z,24.90
2024-01-11T03:13:59.113Z,24.89
2024-01-11T03:14:59.158Z,24.93
2024-01-11T03:15:59.228Z,24.86
2024-01-11T03:16:59.303Z,24.90
2024-01-11T03:17:59.445Z,24.90
2024-01-11T03:18:59.566Z,24.95
2024-01-11T03:19:59.520Z,24.90
2024-01-11T03:20:59.546Z,24.92
2024-01-11T03:21:59.573Z,24.83
2024-01-11T03:22:59.639Z,24.89
2024-01-11T03:23:59.746Z,24.83
2024-01-11T03:24:59.749Z,24.86
2024-01-11T03:25:59.879Z,24.90
2024-01-11T03:26:59.918Z,24.90
2024-01-11T03:27:59.974Z,24.89
2024-01-11T03:29:00.064Z,24.88
2024-01-11T03:30:00.160Z,24.84
2024-01-11T03:31:00.254Z,24.88
2024-01-11T03:32:00.361Z,24.86
2024-01-11T03:33:00.615Z,24.83
2024-01-11T03:34:00.503Z,24.86
2024-01-11T03:35:00.532Z,24.86
2024-01-11T03:36:00.523Z,24.87
2024-01-11T03:37:00.548Z,24.87
2024-01-11T03:38:00.642Z,24.86
2024-01-11T03:39:00.659Z,24.86
2024-01-11T03:40:00.703Z,24.84
2024-01-11T03:41:00.859Z,24.86
2024-01-11T03:42:00.901Z,24.84
2024-01-11T03:43:00.913Z,24.82
2024-01-11T03:45:01.048Z,24.82
2024-01-11T03:46:01.120Z,24.80
2024-01-11T03:47:01.164Z,24.77
2024-01-11T03:48:01.236Z,24.84
2024-01-11T03:49:01.279Z,24.83
2024-01-11T03:50:01.414Z,24.87
2024-01-11T03:51:01.418Z,24.83
2024-01-11T03:52:01.453Z,24.77
2024-01-11T03:53:01.528Z,24.78
2024-01-11T03:54:01.654Z,24.77
2024-01-11T03:55:01.658Z,24.75
2024-01-11T03:56:01.979Z,24.77
2024-01-11T03:57:01.836Z,24.80
2024-01-11T03:58:01.823Z,24.76
2024-01-11T03:59:01.986Z,24.82
2024-01-11T04:00:01.943Z,24.86
2024-01-11T04:01:02.531Z,24.84
2024-01-11T04:02:02.197Z,24.82
2024-01-11T04:03:02.220Z,24.84
2024-01-11T04:04:02.336Z,24.79
2024-01-11T04:05:02.381Z,24.77
2024-01-11T04:06:02.433Z,24.78
2024-01-11T04:07:02.465Z,24.82
2024-01-11T04:08:02.533Z,24.74
2024-01-11T04:09:02.572Z,24.78
2024-01-11T04:10:02.656Z,24.73
2024-01-11T04:11:02.965Z,24.74
2024-01-11T04:12:02.736Z,24.78
2024-01-11T04:13:02.876Z,24.77
2024-01-11T04:14:03.016Z,24.74
2024-01-11T04:15:02.966Z,24.77
2024-01-11T04:16:03.428Z,24.73
2024-01-11T04:17:03.148Z,24.74
2024-01-11T04:18:03.344Z,24.72
2024-01-11T04:19:03.243Z,24.70
2024-01-11T04:20:10.982Z,24.74
2024-01-11T04:21:10.920Z,24.74
2024-01-11T04:22:11.110Z,24.76
2024-01-11T04:23:10.997Z,24.74
2024-01-11T04:24:10.956Z,24.74
2024-01-11T04:25:10.971Z,24.76
2024-01-11T04:26:10.993Z,24.72
2024-01-11T04:27:11.003Z,24.70
2024-01-11T04:28:10.970Z,24.72
2024-01-11T04:29:11.009Z,24.69
2024-01-11T04:30:11.005Z,24.71
2024-01-11T04:31:18.731Z,24.74
2024-01-11T04:32:18.775Z,24.70
2024-01-11T04:33:18.858Z,24.74
2024-01-11T04:34:18.856Z,24.70
2024-01-11T04:35:18.806Z,24.70
2024-01-11T04:36:18.764Z,24.71
2024-01-11T04:37:18.782Z,24.71
2024-01-11T04:38:18.788Z,24.76
2024-01-11T04:39:18.745Z,24.69
2024-01-11T04:40:18.774Z,24.74
2024-01-11T04:41:20.333Z,24.66
2024-01-11T04:42:18.759Z,24.67
2024-01-11T04:43:18.766Z,24.66
2024-01-11T04:44:18.780Z,24.63
2024-01-11T04:45:18.737Z,24.69
2024-01-11T04:46:18.809Z,24.66
2024-01-11T04:47:18.776Z,24.63
2024-01-11T04:48:18.809Z,24.74
2024-01-11T04:49:18.776Z,24.73
2024-01-11T04:50:21.600Z,24.66
2024-01-11T04:51:18.772Z,24.60
2024-01-11T04:52:18.759Z,24.60
2024-01-11T04:53:18.798Z,24.63
2024-01-11T04:54:18.777Z,24.64
2024-01-11T04:55:18.753Z,24.66
2024-01-11T04:56:18.793Z,24.63
2024-01-11T04:57:18.754Z,24.57
2024-01-11T04:58:18.779Z,24.63
2024-01-11T04:59:18.810Z,24.64
2024-01-11T05:00:18.762Z,24.64
2024-01-11T05:01:18.946Z,24.63
2024-01-11T05:02:18.822Z,24.64
2024-01-11T05:03:18.777Z,24.56
2024-01-11T05:04:18.732Z,24.64
2024-01-11T05:05:18.794Z,24.60
2024-01-11T05:06:18.829Z,24.60
2024-01-11T05:07:18.765Z,24.60
2024-01-11T05:08:18.813Z,24.63
2024-01-11T05:09:18.763Z,24.63
2024-01-11T05:10:18.793Z,24.61
2024-01-11T05:11:18.926Z,24.55
2024-01-11T05:12:18.797Z,24.61
2024-01-11T05:13:18.798Z,24.61
2024-01-11T05:14:18.905Z,24.53
2024-01-11T05:15:18.769Z,24.62
2024-01-11T05:16:18.785Z,24.63
2024-01-11T05:17:18.865Z,24.61
2024-01-11T05:18:18.974Z,24.59
2024-01-11T05:19:18.915Z,24.53
2024-01-11T05:20:18.818Z,24.57
2024-01-11T05:21:18.860Z,24.59
2024-01-11T05:22:18.790Z,24.59
2024-01-11T05:23:18.810Z,24.61
2024-01-11T05:24:18.860Z,24.54
2024-01-11T05:25:18.952Z,24.50
2024-01-11T05:26:19.060Z,24.56
2024-01-11T05:27:19.013Z,24.65
2024-01-11T05:28:19.048Z,24.61
2024-01-11T05:29:19.141Z,24.61
2024-01-11T05:30:19.257Z,24.61
2024-01-11T05:31:19.602Z,24.59
2024-01-11T05:32:19.392Z,24.51
2024-01-11T05:33:19.485Z,24.51
2024-01-11T05:34:19.382Z,24.60
2024-01-11T05:35:20.339Z,24.61
2024-01-11T05:36:19.489Z,24.59
2024-01-11T05:37:19.549Z,24.51
2024-01-11T05:38:19.629Z,24.54
2024-01-11T05:39:19.665Z,24.53
2024-01-11T05:40:19.704Z,24.53
2024-01-11T05:41:19.871Z,24.50
2024-01-11T05:42:19.832Z,24.60
2024-01-11T05:43:19.882Z,24.50
2024-01-11T05:44:20.007Z,24.51
2024-01-11T05:45:24.506Z,24.50
2024-01-11T05:46:21.028Z,24.49
2024-01-11T05:47:20.071Z,24.50
2024-01-11T05:48:20.067Z,24.49
2024-01-11T05:49:20.036Z,24.53
2024-01-11T05:50:20.047Z,24.44
2024-01-11T05:51:20.042Z,24.49
2024-01-11T05:52:20.003Z,24.43
2024-01-11T05:53:20.037Z,24.43
2024-01-11T05:54:20.050Z,24.49
2024-01-11T05:55:20.108Z,24.46
2024-01-11T05:56:20.190Z,24.54
2024-01-11T05:57:20.218Z,24.53
2024-01-11T05:58:20.216Z,24.43
2024-01-11T05:59:20.388Z,24.44
2024-01-11T06:00:20.390Z,24.46
2024-01-11T06:01:20.412Z,24.49
2024-01-11T06:02:20.485Z,24.40
2024-01-11T06:03:20.512Z,24.41
2024-01-11T06:04:20.576Z,24.44
2024-01-11T06:05:20.706Z,24.46
2024-01-11T06:06:20.780Z,24.44
2024-01-11T06:07:20.742Z,24.40
2024-01-11T06:08:20.858Z,24.40
2024-01-11T06:09:20.913Z,24.44
2024-01-11T06:10:20.907Z,24.43
2024-01-11T06:11:20.998Z,24.41
2024-01-11T06:12:21.040Z,24.43
2024-01-11T06:13:21.082Z,24.46
2024-01-11T06:14:21.188Z,24.43
2024-01-11T06:15:21.206Z,24.39
2024-01-11T06:16:21.294Z,24.36
2024-01-11T06:17:21.865Z,24.37
2024-01-11T06:18:21.529Z,24.41
2024-01-11T06:19:21.477Z,24.41
2024-01-11T06:20:21.524Z,24.44
2024-01-11T06:21:21.575Z,24.39
2024-01-11T06:22:21.613Z,24.40
2024-01-11T06:23:21.726Z,24.41
2024-01-11T06:24:21.746Z,24.36
2024-01-11T06:25:21.790Z,24.36
2024-01-11T06:26:21.882Z,24.37
2024-01-11T06:27:21.903Z,24.36
2024-01-11T06:28:21.933Z,24.34
2024-01-11T06:29:22.053Z,24.34
2024-01-11T06:30:22.066Z,24.34
2024-01-11T06:31:22.109Z,24.34
2024-01-11T06:32:22.200Z,24.36
2024-01-11T06:33:22.375Z,24.33
2024-01-11T06:34:22.280Z,24.34
2024-01-11T06:35:22.342Z,24.36
2024-01-11T06:36:22.842Z,24.46
2024-01-11T06:37:22.440Z,24.40
2024-01-11T06:38:22.527Z,24.39
2024-01-11T06:39:22.551Z,24.39
2024-01-11T06:40:22.610Z,24.34
2024-01-11T06:41:22.665Z,24.30
2024-01-11T06:42:22.746Z,24.29
2024-01-11T06:43:22.794Z,24.17
2024-01-11T06:44:22.860Z,24.24
2024-01-11T06:45:22.894Z,24.22
2024-01-11T06:46:22.949Z,24.09
2024-01-11T06:47:23.299Z,23.42
2024-01-11T06:48:23.223Z,24.34
2024-01-11T06:49:23.310Z,33.75
2024-01-11T06:50:23.225Z,25.97
2024-01-11T06:51:23.322Z,25.06
2024-01-11T06:52:23.372Z,24.62
2024-01-11T06:53:23.450Z,25.02
2024-01-11T06:54:23.485Z,25.58
2024-01-11T06:55:23.550Z,25.78
2024-01-11T06:56:23.631Z,25.70
2024-01-11T06:57:23.655Z,25.60
2024-01-11T06:58:23.719Z,25.70
2024-01-11T06:59:25.970Z,25.79
2024-01-11T07:00:23.779Z,25.93
2024-01-11T07:01:23.799Z,26.10
2024-01-11T07:02:23.795Z,26.41
2024-01-11T07:03:23.859Z,26.84
2024-01-11T07:04:23.750Z,27.17
2024-01-11T07:05:23.861Z,27.60
2024-01-11T07:06:23.986Z,27.87
2024-01-11T07:07:23.785Z,28.21
2024-01-11T07:08:23.836Z,28.25
2024-01-11T07:09:23.796Z,28.52
2024-01-11T07:10:23.787Z,28.79
2024-01-11T07:11:23.916Z,28.93
2024-01-11T07:12:23.782Z,29.12
2024-01-11T07:13:23.758Z,29.28
2024-01-11T07:14:23.798Z,29.57
2024-01-11T07:15:23.777Z,29.80
2024-01-11T07:16:23.836Z,30.04
2024-01-11T07:17:23.819Z,30.20
2024-01-11T07:18:23.875Z,30.17
2024-01-11T07:19:23.916Z,30.38
2024-01-11T07:20:24.006Z,30.69
2024-01-11T07:21:23.877Z,30.95
2024-01-11T07:22:23.789Z,31.12
2024-01-11T07:23:23.814Z,31.15
2024-01-11T07:24:23.816Z,31.64
2024-01-11T07:25:23.791Z,31.38
2024-01-11T07:26:23.882Z,31.52
2024-01-11T07:27:23.825Z,31.96
2024-01-11T07:28:23.784Z,32.14
2024-01-11T07:29:23.814Z,32.24
2024-01-11T07:30:23.895Z,32.36
2024-01-11T07:31:23.890Z,32.37
2024-01-11T07:32:23.941Z,32.70
2024-01-11T07:33:24.023Z,32.77
2024-01-11T07:34:23.947Z,33.26
2024-01-11T07:35:23.869Z,33.29
2024-01-11T07:36:23.824Z,33.53
2024-01-11T07:37:23.779Z,33.60
2024-01-11T07:38:23.822Z,33.87
2024-01-11T07:39:23.824Z,33.67
2024-01-11T07:40:23.824Z,33.62
2024-01-11T07:41:23.969Z,33.73
2024-01-11T07:42:23.819Z,33.86
2024-01-11T07:43:27.007Z,33.93
2024-01-11T07:44:24.846Z,34.19
2024-01-11T07:45:23.850Z,34.26
2024-01-11T07:46:32.978Z,34.52
2024-01-11T07:47:24.873Z,34.56
2024-01-11T07:48:23.909Z,34.55
2024-01-11T07:49:23.908Z,34.75
2024-01-11T07:50:23.828Z,34.92
2024-01-11T07:51:23.986Z,34.83
2024-01-11T07:52:23.920Z,34.82
2024-01-11T07:53:23.834Z,34.92
2024-01-11T07:54:23.826Z,34.81
2024-01-11T07:55:23.849Z,34.90
2024-01-11T07:56:23.930Z,35.63
2024-01-11T07:57:23.834Z,34.85
2024-01-11T07:58:23.825Z,34.42
2024-01-11T07:59:23.861Z,34.04
2024-01-11T08:00:23.842Z,29.16
2024-01-11T08:01:23.878Z,20.49
2024-01-11T08:02:23.909Z,23.24
2024-01-11T08:03:23.886Z,23.34
2024-01-11T08:04:23.876Z,23.84
2024-01-11T08:05:24.088Z,24.60
2024-01-11T08:06:24.135Z,24.30
2024-01-11T08:07:24.056Z,24.90
2024-01-11T08:08:24.132Z,25.36
2024-01-11T08:09:24.220Z,25.61
2024-01-11T08:10:24.243Z,26.13
2024-01-11T08:11:24.302Z,26.77
2024-01-11T08:12:24.304Z,27.71
2024-01-11T08:13:24.347Z,28.14
2024-01-11T08:14:24.359Z,28.75
2024-01-11T08:15:24.368Z,28.87
2024-01-11T08:16:24.873Z,28.79
2024-01-11T08:17:24.505Z,28.92
2024-01-11T08:18:24.569Z,28.92
2024-01-11T08:19:24.677Z,29.06
2024-01-11T08:20:24.753Z,29.00
2024-01-11T08:21:24.721Z,29.28
2024-01-11T08:22:27.640Z,29.61
2024-01-11T08:23:24.829Z,29.56
2024-01-11T08:24:24.727Z,29.75
2024-01-11T08:25:24.770Z,29.39
2024-01-11T08:26:24.789Z,29.50
2024-01-11T08:27:24.927Z,29.80
2024-01-11T08:28:24.759Z,29.86
2024-01-11T08:29:24.782Z,30.08
2024-01-11T08:30:24.814Z,30.26
2024-01-11T08:31:24.790Z,30.24
2024-01-11T08:32:31.770Z,30.48
2024-01-11T08:33:25.887Z,30.51
2024-01-11T08:34:24.958Z,30.69
2024-01-11T08:35:24.806Z,30.76
2024-01-11T08:36:24.774Z,30.84
2024-01-11T08:37:24.878Z,31.11
2024-01-11T08:38:25.794Z,31.24
2024-01-11T08:39:24.792Z,31.04
2024-01-11T08:40:24.778Z,31.11
2024-01-11T08:41:24.783Z,31.22
2024-01-11T08:42:24.922Z,31.48
2024-01-11T08:43:24.783Z,31.44
2024-01-11T08:44:24.794Z,31.52
2024-01-11T08:45:24.821Z,31.67
2024-01-11T08:46:24.909Z,31.90
2024-01-11T08:48:25.125Z,31.64
2024-01-11T08:49:25.475Z,31.35
2024-01-11T08:50:26.094Z,30.87
2024-01-11T08:51:25.250Z,30.65
2024-01-11T08:52:25.292Z,30.68
2024-01-11T08:53:25.408Z,30.38
2024-01-11T08:54:25.462Z,30.27
2024-01-11T08:55:25.482Z,30.29
2024-01-11T08:56:25.693Z,30.30
2024-01-11T08:57:25.648Z,30.30
2024-01-11T08:58:26.740Z,30.40
2024-01-11T08:59:25.734Z,30.44
2024-01-11T09:00:25.758Z,30.44
2024-01-11T09:01:25.829Z,30.61
2024-01-11T09:02:27.553Z,30.75
2024-01-11T09:03:26.034Z,30.78
2024-01-11T09:04:26.045Z,30.75
2024-01-11T09:05:26.103Z,30.89
2024-01-11T09:06:26.164Z,30.95
2024-01-11T09:07:26.164Z,31.05
2024-01-11T09:08:26.288Z,31.05
2024-01-11T09:09:26.256Z,31.23
2024-01-11T09:10:26.285Z,31.21
2024-01-11T09:11:26.398Z,31.32
2024-01-11T09:12:26.441Z,31.43
2024-01-11T09:13:26.435Z,31.46
2024-01-11T09:14:26.543Z,31.45
2024-01-11T09:15:26.536Z,31.63
2024-01-11T09:16:26.590Z,31.58
2024-01-11T09:17:26.891Z,31.72
2024-01-11T09:18:26.793Z,31.69
2024-01-11T09:19:26.802Z,31.92
2024-01-11T09:20:26.813Z,31.87
2024-01-11T09:21:26.843Z,31.97
2024-01-11T09:22:26.877Z,32.03
2024-01-11T09:23:26.953Z,32.07
2024-01-11T09:24:29.191Z,32.06
2024-01-11T09:25:27.025Z,32.01
2024-01-11T09:26:27.040Z,32.14
2024-01-11T09:27:27.034Z,32.11
2024-01-11T09:28:27.029Z,32.11
2024-01-11T09:29:26.980Z,32.14
2024-01-11T09:30:27.023Z,32.21
2024-01-11T09:31:27.066Z,32.27
2024-01-11T09:32:27.214Z,32.33
2024-01-11T09:33:27.205Z,32.36
2024-01-11T09:34:27.131Z,32.36
2024-01-11T09:35:27.079Z,32.33
2024-01-11T09:36:27.038Z,32.60
2024-01-11T09:37:27.398Z,32.63
2024-01-11T09:38:27.070Z,32.59
2024-01-11T09:39:27.192Z,32.70
2024-01-11T09:40:27.011Z,32.85
2024-01-11T09:41:27.147Z,32.76
2024-01-11T09:42:27.038Z,32.46
2024-01-11T09:43:27.019Z,32.30
2024-01-11T09:44:27.128Z,32.08
2024-01-11T09:45:27.123Z,31.96
2024-01-11T09:46:27.059Z,31.54
2024-01-11T09:47:27.559Z,31.16
2024-01-11T09:48:27.051Z,30.63
2024-01-11T09:49:27.105Z,30.13
2024-01-11T09:50:27.137Z,29.78
2024-01-11T09:51:27.054Z,29.72
2024-01-11T09:52:27.048Z,29.31
2024-01-11T09:53:27.130Z,29.09
2024-01-11T09:54:27.151Z,28.79
2024-01-11T09:55:27.183Z,28.49
2024-01-11T09:56:27.252Z,28.21
2024-01-11T09:57:27.446Z,26.23
2024-01-11T09:58:27.377Z,26.78
2024-01-11T09:59:27.501Z,27.13
2024-01-11T10:00:27.628Z,27.27
2024-01-11T10:01:27.672Z,26.89
2024-01-11T10:02:28.243Z,27.32
2024-01-11T10:03:27.804Z,27.22
2024-01-11T10:04:27.830Z,27.06
2024-01-11T10:05:27.955Z,26.91
2024-01-11T10:06:27.973Z,26.89
2024-01-11T10:07:28.061Z,26.87
2024-01-11T10:08:28.149Z,26.67
2024-01-11T10:09:28.174Z,26.77
2024-01-11T10:10:28.260Z,26.60
2024-01-11T10:11:28.333Z,26.63
2024-01-11T10:12:28.410Z,26.61
2024-01-11T10:13:28.439Z,26.40
2024-01-11T10:14:28.553Z,26.46
2024-01-11T10:15:28.603Z,26.39
2024-01-11T10:16:28.627Z,26.49
2024-01-11T10:17:29.103Z,26.14
2024-01-11T10:18:29.028Z,26.30
2024-01-11T10:19:29.122Z,26.20
2024-01-11T10:20:29.126Z,26.23
2024-01-11T10:21:28.960Z,26.20
2024-01-11T10:22:29.018Z,26.14
2024-01-11T10:23:29.095Z,25.87
2024-01-11T10:24:29.125Z,25.68
2024-01-11T10:25:29.179Z,25.92
2024-01-11T10:26:29.334Z,25.99
2024-01-11T10:27:29.345Z,25.55
2024-01-11T10:28:29.454Z,25.66
2024-01-11T10:29:29.517Z,25.83
2024-01-11T10:30:29.695Z,25.66
2024-01-11T10:31:29.661Z,25.62
2024-01-11T10:32:30.134Z,25.46
2024-01-11T10:33:29.833Z,25.25
2024-01-11T10:34:29.837Z,25.29
2024-01-11T10:35:29.920Z,25.45
2024-01-11T10:36:29.966Z,25.48
2024-01-11T10:37:30.039Z,25.56
2024-01-11T10:38:30.157Z,25.61
2024-01-11T10:39:30.202Z,25.63
2024-01-11T10:40:30.230Z,25.59
2024-01-11T10:41:30.361Z,25.49
2024-01-11T10:42:30.358Z,25.48
2024-01-11T10:43:30.435Z,25.45
2024-01-11T10:44:30.678Z,25.49
2024-01-11T10:45:30.555Z,25.47
2024-01-11T10:46:30.636Z,25.23
2024-01-11T10:47:30.797Z,24.71
2024-01-11T10:48:30.797Z,24.08
2024-01-11T10:49:30.943Z,23.97
2024-01-11T10:50:30.947Z,23.39
2024-01-11T10:51:30.997Z,23.27
2024-01-11T10:52:31.456Z,22.84
2024-01-11T10:53:31.739Z,23.01
2024-01-11T10:54:31.065Z,22.19
2024-01-11T10:55:31.434Z,22.30
2024-01-11T10:56:31.146Z,22.94
2024-01-11T10:57:31.489Z,23.00
2024-01-11T10:58:31.107Z,22.66
2024-01-11T10:59:31.168Z,22.48
2024-01-11T11:00:31.212Z,22.17
2024-01-11T11:01:31.135Z,22.26
2024-01-11T11:02:31.580Z,22.44
2024-01-11T11:03:31.253Z,22.07
2024-01-11T11:04:31.258Z,21.95
2024-01-11T11:05:31.479Z,22.01
2024-01-11T11:06:31.531Z,22.32
2024-01-11T11:07:31.492Z,22.02
2024-01-11T11:08:31.449Z,21.61
2024-01-11T11:09:31.521Z,21.76
2024-01-11T11:10:31.570Z,21.86
2024-01-11T11:11:31.609Z,21.77
2024-01-11T11:12:31.974Z,21.36
2024-01-11T11:13:31.741Z,21.30
2024-01-11T11:14:31.807Z,21.38
2024-01-11T11:15:31.865Z,21.38
2024-01-11T11:16:31.903Z,21.18
2024-01-11T11:17:32.557Z,20.92
2024-01-11T11:18:32.104Z,20.83
2024-01-11T11:19:32.105Z,21.15
2024-01-11T11:20:32.218Z,21.44
2024-01-11T11:21:32.298Z,21.07
2024-01-11T11:22:32.456Z,20.75
2024-01-11T11:23:32.369Z,20.39
2024-01-11T11:24:32.363Z,20.50
2024-01-11T11:25:32.340Z,20.70
2024-01-11T11:26:32.409Z,20.71
2024-01-11T11:27:32.497Z,20.80
2024-01-11T11:28:32.348Z,20.38
2024-01-11T11:29:32.473Z,20.38
2024-01-11T11:30:32.416Z,20.41
2024-01-11T11:31:32.371Z,20.57
2024-01-11T11:32:32.626Z,20.32
2024-01-11T11:33:32.531Z,19.94
2024-01-11T11:34:32.592Z,20.31
2024-01-11T11:35:32.533Z,20.10
2024-01-11T11:36:32.545Z,20.10
2024-01-11T11:37:33.005Z,19.79
2024-01-11T11:38:32.745Z,19.77
2024-01-11T11:39:33.493Z,19.80
2024-01-11T11:40:32.608Z,19.78
2024-01-11T11:41:32.688Z,20.04
2024-01-11T11:42:33.055Z,20.27
2024-01-11T11:43:32.690Z,20.36
2024-01-11T11:44:32.689Z,21.01
2024-01-11T11:45:32.645Z,21.20
2024-01-11T11:46:32.667Z,20.86
2024-01-11T11:47:33.084Z,21.05
2024-01-11T11:48:32.987Z,20.90
2024-01-11T11:49:32.868Z,20.74
2024-01-11T11:50:32.820Z,20.68
2024-01-11T11:51:32.824Z,20.89
2024-01-11T11:52:32.970Z,20.91
2024-01-11T11:53:32.946Z,20.72
2024-01-11T11:54:32.998Z,20.42
2024-01-11T11:55:33.039Z,20.68
2024-01-11T11:56:33.137Z,20.75
2024-01-11T11:57:33.609Z,20.69
2024-01-11T11:58:33.176Z,20.74
2024-01-11T11:59:33.286Z,20.68
2024-01-11T12:00:33.329Z,20.78
2024-01-11T12:01:33.368Z,20.92
2024-01-11T12:02:33.467Z,20.71
2024-01-11T12:03:33.447Z,20.86
2024-01-11T12:04:33.491Z,20.59
2024-01-11T12:05:33.588Z,20.40
2024-01-11T12:06:33.601Z,20.36
2024-01-11T12:07:34.005Z,20.58
2024-01-11T12:08:33.655Z,20.45
2024-01-11T12:09:33.634Z,20.57
2024-01-11T12:10:33.706Z,20.66
2024-01-11T12:11:33.673Z,20.61
2024-01-11T12:12:34.026Z,20.54
2024-01-11T12:13:33.684Z,20.63
2024-01-11T12:14:33.772Z,20.64
2024-01-11T12:15:33.750Z,20.82
2024-01-11T12:16:33.717Z,20.66
2024-01-11T12:17:34.143Z,20.66
2024-01-11T12:18:33.921Z,20.81
2024-01-11T12:19:34.048Z,20.72
2024-01-11T12:20:33.940Z,20.58
2024-01-11T12:21:33.817Z,20.72
2024-01-11T12:22:33.997Z,20.67
2024-01-11T12:23:33.981Z,20.67
2024-01-11T12:24:33.936Z,20.76
2024-01-11T12:25:33.955Z,20.75
2024-01-11T12:26:34.079Z,20.70
2024-01-11T12:27:34.602Z,20.73
2024-01-11T12:28:34.207Z,20.75
2024-01-11T12:29:40.190Z,20.75
2024-01-11T12:30:35.234Z,20.76
2024-01-11T12:31:34.229Z,20.76
2024-01-11T12:32:35.068Z,20.76
2024-01-11T12:33:34.278Z,20.75
2024-01-11T12:34:34.172Z,20.66
2024-01-11T12:35:34.150Z,20.75
2024-01-11T12:36:34.139Z,20.90
2024-01-11T12:37:34.510Z,21.33
2024-01-11T12:38:34.217Z,21.35
2024-01-11T12:39:34.153Z,21.35
2024-01-11T12:40:34.155Z,21.46
2024-01-11T12:41:34.188Z,21.41
2024-01-11T12:42:34.557Z,21.56
2024-01-11T12:43:34.262Z,21.42
2024-01-11T12:44:34.333Z,21.32
2024-01-11T12:45:34.314Z,21.32
2024-01-11T12:46:34.323Z,21.30
2024-01-11T12:47:34.745Z,21.27
2024-01-11T12:48:34.588Z,21.30
2024-01-11T12:49:34.626Z,21.19
2024-01-11T12:50:34.586Z,21.02
2024-01-11T12:51:34.550Z,20.95
2024-01-11T12:52:35.041Z,21.24
2024-01-11T12:53:34.613Z,21.24
2024-01-11T12:54:34.589Z,20.91
2024-01-11T12:55:38.428Z,21.03